Station History

Weather Underground - logo

Station Historical Data
Daily Summary for December 30, 2017 Units:  Both    English   Metric
« Previous Day
Next Day »
Daily Weekly Monthly Yearly Custom
  High: Low: Average:
Temperature: TemperatureF °F /  -17.8 °C 33.5 °F /  0.8 °C 46.4 °F /  8 °C
Dew Point: DewpointF °F /  -17.8 °C 31.6 °F /  -0.2 °C 39.4 °F /  4.1 °C
Humidity: Humidity % 48 % 78 %
Wind Speed: WindSpeedMPH mph /  0 km/h - 0.3 mph /  0.5 km/h
Wind Gust: WindSpeedGustMPH mph /  0 km/h - -
Wind:- - West
Pressure: PressureIn in /  0 hPa 30.05 in /  1017.5 hPa -
Precipitation: 0.00 in /  0 mm    
Historical Graphs
 
 
Tabular Data for December 30, 2017
Time Temperature Dew Point Pressure Wind Wind Speed Wind Gust Humidity Rainfall Rate (Hourly)
TemperatureF °F /  -17.8 °C DewpointF °F /  -17.8 °C PressureIn in /  0 hPa Calm     Humidity % HourlyPrecipIn in /  0 mm
00:01 40.5 °F /  4.7 °C 37.2 °F /  2.9 °C 30.17 in /  1021.6 hPa Calm     88 % 0.00 in /  0 mm
00:06 40.6 °F /  4.8 °C 37.3 °F /  2.9 °C 30.17 in /  1021.6 hPa Calm     88 % 0.00 in /  0 mm
00:08 40.6 °F /  4.8 °C 37.3 °F /  2.9 °C 30.17 in /  1021.6 hPa Calm     88 % 0.00 in /  0 mm
00:13 40.6 °F /  4.8 °C 37.0 °F /  2.8 °C 30.17 in /  1021.6 hPa Calm     87 % 0.00 in /  0 mm
00:16 40.7 °F /  4.8 °C 37.1 °F /  2.8 °C 30.16 in /  1021.2 hPa SW 1.0 mph /  1.6 km/h 1.0 mph /  1.6 km/h 87 % 0.00 in /  0 mm
00:21 40.7 °F /  4.8 °C 37.1 °F /  2.8 °C 30.16 in /  1021.2 hPa WSW 1.2 mph /  1.9 km/h   87 % 0.00 in /  0 mm
00:23 40.6 °F /  4.8 °C 37.0 °F /  2.8 °C 30.16 in /  1021.2 hPa Calm     87 % 0.00 in /  0 mm
00:29 40.5 °F /  4.7 °C 36.9 °F /  2.7 °C 30.16 in /  1021.2 hPa WSW 1.2 mph /  1.9 km/h   87 % 0.00 in /  0 mm
00:34 40.4 °F /  4.7 °C 36.8 °F /  2.7 °C 30.16 in /  1021.2 hPa Calm     87 % 0.00 in /  0 mm
00:41 40.1 °F /  4.5 °C 36.5 °F /  2.5 °C 30.16 in /  1021.2 hPa Calm     87 % 0.00 in /  0 mm
00:42 40.0 °F /  4.4 °C 36.4 °F /  2.4 °C 30.16 in /  1021.2 hPa Calm     87 % 0.00 in /  0 mm
00:47 39.7 °F /  4.3 °C 36.1 °F /  2.3 °C 30.16 in /  1021.2 hPa Calm     87 % 0.00 in /  0 mm
00:48 39.6 °F /  4.2 °C 36.0 °F /  2.2 °C 30.16 in /  1021.2 hPa Calm     87 % 0.00 in /  0 mm
00:51 39.4 °F /  4.1 °C 35.9 °F /  2.2 °C 30.16 in /  1021.2 hPa Calm     87 % 0.00 in /  0 mm
00:53 39.2 °F /  4 °C 35.7 °F /  2.1 °C 30.16 in /  1021.2 hPa Calm     87 % 0.00 in /  0 mm
00:58 39.1 °F /  3.9 °C 36.1 °F /  2.3 °C 30.16 in /  1021.2 hPa Calm     89 % 0.00 in /  0 mm
01:00 39.1 °F /  3.9 °C 36.1 °F /  2.3 °C 30.16 in /  1021.2 hPa Calm     89 % 0.00 in /  0 mm
01:05 39.5 °F /  4.2 °C 37.1 °F /  2.8 °C 30.16 in /  1021.2 hPa Calm     91 % 0.00 in /  0 mm
01:07 39.7 °F /  4.3 °C 37.0 °F /  2.8 °C 30.15 in /  1020.9 hPa Calm     90 % 0.00 in /  0 mm
01:11 40.0 °F /  4.4 °C 37.3 °F /  2.9 °C 30.16 in /  1021.2 hPa Calm     90 % 0.00 in /  0 mm
01:16 40.2 °F /  4.6 °C 37.2 °F /  2.9 °C 30.16 in /  1021.2 hPa Calm     89 % 0.00 in /  0 mm
01:20 40.2 °F /  4.6 °C 36.9 °F /  2.7 °C 30.16 in /  1021.2 hPa Calm     88 % 0.00 in /  0 mm
01:25 40.0 °F /  4.4 °C 36.7 °F /  2.6 °C 30.16 in /  1021.2 hPa Calm     88 % 0.00 in /  0 mm
01:28 39.6 °F /  4.2 °C 36.0 °F /  2.2 °C 30.16 in /  1021.2 hPa Calm     87 % 0.00 in /  0 mm
01:33 38.6 °F /  3.7 °C 35.1 °F /  1.7 °C 30.16 in /  1021.2 hPa Calm     87 % 0.00 in /  0 mm
01:38 38.3 °F /  3.5 °C 35.3 °F /  1.8 °C 30.16 in /  1021.2 hPa Calm     89 % 0.00 in /  0 mm
01:39 38.3 °F /  3.5 °C 35.6 °F /  2 °C 30.16 in /  1021.2 hPa Calm     90 % 0.00 in /  0 mm
01:44 38.7 °F /  3.7 °C 36.3 °F /  2.4 °C 30.16 in /  1021.2 hPa Calm     91 % 0.00 in /  0 mm
01:49 38.7 °F /  3.7 °C 36.0 °F /  2.2 °C 30.16 in /  1021.2 hPa Calm     90 % 0.00 in /  0 mm
01:52 38.9 °F /  3.8 °C 36.2 °F /  2.3 °C 30.16 in /  1021.2 hPa West 1.2 mph /  1.9 km/h   90 % 0.00 in /  0 mm
01:53 39.1 °F /  3.9 °C 36.7 °F /  2.6 °C 30.16 in /  1021.2 hPa Calm     91 % 0.00 in /  0 mm
01:58 39.7 °F /  4.3 °C 37.0 °F /  2.8 °C 30.16 in /  1021.2 hPa Calm     90 % 0.00 in /  0 mm
02:02 40.0 °F /  4.4 °C 37.0 °F /  2.8 °C 30.16 in /  1021.2 hPa Calm     89 % 0.00 in /  0 mm
02:03 40.1 °F /  4.5 °C 37.1 °F /  2.8 °C 30.16 in /  1021.2 hPa Calm     89 % 0.00 in /  0 mm
02:08 40.4 °F /  4.7 °C 37.1 °F /  2.8 °C 30.16 in /  1021.2 hPa West 1.2 mph /  1.9 km/h   88 % 0.00 in /  0 mm
02:12 40.6 °F /  4.8 °C 37.3 °F /  2.9 °C 30.16 in /  1021.2 hPa WNW 1.2 mph /  1.9 km/h   88 % 0.00 in /  0 mm
02:13 40.6 °F /  4.8 °C 37.0 °F /  2.8 °C 30.16 in /  1021.2 hPa NNW 1.2 mph /  1.9 km/h 1.2 mph /  1.9 km/h 87 % 0.00 in /  0 mm
02:18 40.7 °F /  4.8 °C 37.1 °F /  2.8 °C 30.16 in /  1021.2 hPa Calm     87 % 0.00 in /  0 mm
02:21 40.8 °F /  4.9 °C 37.2 °F /  2.9 °C 30.16 in /  1021.2 hPa Calm     87 % 0.00 in /  0 mm
02:26 40.9 °F /  4.9 °C 37.3 °F /  2.9 °C 30.16 in /  1021.2 hPa Calm     87 % 0.00 in /  0 mm
02:28 41.0 °F /  5 °C 37.4 °F /  3 °C 30.16 in /  1021.2 hPa Calm     87 % 0.00 in /  0 mm
02:33 40.3 °F /  4.6 °C 36.4 °F /  2.4 °C 30.16 in /  1021.2 hPa Calm     86 % 0.00 in /  0 mm
02:34 40.2 °F /  4.6 °C 36.3 °F /  2.4 °C 30.16 in /  1021.2 hPa Calm     86 % 0.00 in /  0 mm
02:39 39.9 °F /  4.4 °C 36.3 °F /  2.4 °C 30.17 in /  1021.6 hPa Calm     87 % 0.00 in /  0 mm
02:40 39.9 °F /  4.4 °C 36.3 °F /  2.4 °C 30.16 in /  1021.2 hPa Calm     87 % 0.00 in /  0 mm
02:45 39.7 °F /  4.3 °C 36.1 °F /  2.3 °C 30.16 in /  1021.2 hPa Calm     87 % 0.00 in /  0 mm
02:47 39.4 °F /  4.1 °C 35.6 °F /  2 °C 30.16 in /  1021.2 hPa Calm     86 % 0.00 in /  0 mm
02:50 38.9 °F /  3.8 °C 35.1 °F /  1.7 °C 30.16 in /  1021.2 hPa Calm     86 % 0.00 in /  0 mm
02:55 38.3 °F /  3.5 °C 34.8 °F /  1.6 °C 30.16 in /  1021.2 hPa Calm     87 % 0.00 in /  0 mm
03:00 37.7 °F /  3.2 °C 34.2 °F /  1.2 °C 30.17 in /  1021.6 hPa Calm     87 % 0.00 in /  0 mm
03:01 37.6 °F /  3.1 °C 34.1 °F /  1.2 °C 30.17 in /  1021.6 hPa Calm     87 % 0.00 in /  0 mm
03:06 37.1 °F /  2.8 °C 33.9 °F /  1.1 °C 30.16 in /  1021.2 hPa Calm     88 % 0.00 in /  0 mm
03:12 36.7 °F /  2.6 °C 33.8 °F /  1 °C 30.17 in /  1021.6 hPa Calm     89 % 0.00 in /  0 mm
03:17 36.3 °F /  2.4 °C 33.4 °F /  0.8 °C 30.16 in /  1021.2 hPa Calm     89 % 0.00 in /  0 mm
03:21 36.1 °F /  2.3 °C 33.5 °F /  0.8 °C 30.16 in /  1021.2 hPa Calm     90 % 0.00 in /  0 mm
03:26 35.9 °F /  2.2 °C 33.3 °F /  0.7 °C 30.16 in /  1021.2 hPa Calm     90 % 0.00 in /  0 mm
03:27 35.9 °F /  2.2 °C 33.3 °F /  0.7 °C 30.17 in /  1021.6 hPa Calm     90 % 0.00 in /  0 mm
03:32 35.7 °F /  2.1 °C 33.1 °F /  0.6 °C 30.17 in /  1021.6 hPa Calm     90 % 0.00 in /  0 mm
03:36 35.5 °F /  1.9 °C 32.9 °F /  0.5 °C 30.16 in /  1021.2 hPa Calm     90 % 0.00 in /  0 mm
03:39 35.3 °F /  1.8 °C 32.7 °F /  0.4 °C 30.16 in /  1021.2 hPa Calm     90 % 0.00 in /  0 mm
03:44 35.1 °F /  1.7 °C 32.7 °F /  0.4 °C 30.16 in /  1021.2 hPa Calm     91 % 0.00 in /  0 mm
03:49 35.0 °F /  1.7 °C 32.6 °F /  0.3 °C 30.16 in /  1021.2 hPa Calm     91 % 0.00 in /  0 mm
03:50 35.0 °F /  1.7 °C 32.6 °F /  0.3 °C 30.16 in /  1021.2 hPa Calm     91 % 0.00 in /  0 mm
03:55 35.1 °F /  1.7 °C 33.0 °F /  0.6 °C 30.17 in /  1021.6 hPa Calm     92 % 0.00 in /  0 mm
03:56 35.1 °F /  1.7 °C 33.0 °F /  0.6 °C 30.17 in /  1021.6 hPa Calm     92 % 0.00 in /  0 mm
04:01 35.1 °F /  1.7 °C 33.0 °F /  0.6 °C 30.17 in /  1021.6 hPa Calm     92 % 0.00 in /  0 mm
04:02 35.1 °F /  1.7 °C 33.0 °F /  0.6 °C 30.17 in /  1021.6 hPa Calm     92 % 0.00 in /  0 mm
04:06 35.2 °F /  1.8 °C 33.1 °F /  0.6 °C 30.17 in /  1021.6 hPa Calm     92 % 0.00 in /  0 mm
04:11 35.1 °F /  1.7 °C 33.0 °F /  0.6 °C 30.17 in /  1021.6 hPa Calm     92 % 0.00 in /  0 mm
04:16 35.2 °F /  1.8 °C 33.1 °F /  0.6 °C 30.16 in /  1021.2 hPa Calm     92 % 0.00 in /  0 mm
04:17 35.2 °F /  1.8 °C 33.1 °F /  0.6 °C 30.17 in /  1021.6 hPa Calm     92 % 0.00 in /  0 mm
04:22 35.2 °F /  1.8 °C 33.4 °F /  0.8 °C 30.17 in /  1021.6 hPa Calm     93 % 0.00 in /  0 mm
04:27 35.4 °F /  1.9 °C 33.6 °F /  0.9 °C 30.16 in /  1021.2 hPa Calm     93 % 0.00 in /  0 mm
04:31 35.6 °F /  2 °C 33.8 °F /  1 °C 30.16 in /  1021.2 hPa Calm     93 % 0.00 in /  0 mm
04:32 35.6 °F /  2 °C 33.8 °F /  1 °C 30.16 in /  1021.2 hPa Calm     93 % 0.00 in /  0 mm
04:37 35.7 °F /  2.1 °C 33.9 °F /  1.1 °C 30.16 in /  1021.2 hPa Calm     93 % 0.00 in /  0 mm
04:41 35.8 °F /  2.1 °C 34.0 °F /  1.1 °C 30.16 in /  1021.2 hPa Calm     93 % 0.00 in /  0 mm
04:46 36.0 °F /  2.2 °C 34.2 °F /  1.2 °C 30.16 in /  1021.2 hPa Calm     93 % 0.00 in /  0 mm
04:51 36.2 °F /  2.3 °C 34.4 °F /  1.3 °C 30.16 in /  1021.2 hPa Calm     93 % 0.00 in /  0 mm
04:52 36.3 °F /  2.4 °C 34.5 °F /  1.4 °C 30.16 in /  1021.2 hPa Calm     93 % 0.00 in /  0 mm
04:57 36.3 °F /  2.4 °C 34.5 °F /  1.4 °C 30.16 in /  1021.2 hPa Calm     93 % 0.00 in /  0 mm
05:02 36.4 °F /  2.4 °C 34.3 °F /  1.3 °C 30.16 in /  1021.2 hPa Calm     92 % 0.00 in /  0 mm
05:04 36.4 °F /  2.4 °C 34.3 °F /  1.3 °C 30.16 in /  1021.2 hPa Calm     92 % 0.00 in /  0 mm
05:08 36.3 °F /  2.4 °C 34.2 °F /  1.2 °C 30.16 in /  1021.2 hPa Calm     92 % 0.00 in /  0 mm
05:13 36.3 °F /  2.4 °C 34.2 °F /  1.2 °C 30.16 in /  1021.2 hPa Calm     92 % 0.00 in /  0 mm
05:14 36.4 °F /  2.4 °C 34.3 °F /  1.3 °C 30.16 in /  1021.2 hPa Calm     92 % 0.00 in /  0 mm
05:19 36.2 °F /  2.3 °C 34.1 °F /  1.2 °C 30.16 in /  1021.2 hPa Calm     92 % 0.00 in /  0 mm
05:24 36.3 °F /  2.4 °C 34.2 °F /  1.2 °C 30.16 in /  1021.2 hPa Calm     92 % 0.00 in /  0 mm
05:25 36.3 °F /  2.4 °C 34.2 °F /  1.2 °C 30.16 in /  1021.2 hPa Calm     92 % 0.00 in /  0 mm
05:30 36.2 °F /  2.3 °C 34.1 °F /  1.2 °C 30.16 in /  1021.2 hPa Calm     92 % 0.00 in /  0 mm
05:32 36.1 °F /  2.3 °C 34.0 °F /  1.1 °C 30.16 in /  1021.2 hPa Calm     92 % 0.00 in /  0 mm
05:36 36.0 °F /  2.2 °C 33.9 °F /  1.1 °C 30.16 in /  1021.2 hPa Calm     92 % 0.00 in /  0 mm
05:37 36.0 °F /  2.2 °C 33.9 °F /  1.1 °C 30.16 in /  1021.2 hPa Calm     92 % 0.00 in /  0 mm
05:42 35.7 °F /  2.1 °C 33.6 °F /  0.9 °C 30.16 in /  1021.2 hPa Calm     92 % 0.00 in /  0 mm
05:43 35.7 °F /  2.1 °C 33.6 °F /  0.9 °C 30.16 in /  1021.2 hPa Calm     92 % 0.00 in /  0 mm
05:45 35.6 °F /  2 °C 33.5 °F /  0.8 °C 30.16 in /  1021.2 hPa Calm     92 % 0.00 in /  0 mm
05:49 35.4 °F /  1.9 °C 33.3 °F /  0.7 °C 30.16 in /  1021.2 hPa Calm     92 % 0.00 in /  0 mm
05:50 35.4 °F /  1.9 °C 33.3 °F /  0.7 °C 30.16 in /  1021.2 hPa Calm     92 % 0.00 in /  0 mm
05:54 35.4 °F /  1.9 °C 33.3 °F /  0.7 °C 30.16 in /  1021.2 hPa Calm     92 % 0.00 in /  0 mm
05:59 35.3 °F /  1.8 °C 33.2 °F /  0.7 °C 30.16 in /  1021.2 hPa Calm     92 % 0.00 in /  0 mm
06:02 35.4 °F /  1.9 °C 33.3 °F /  0.7 °C 30.16 in /  1021.2 hPa Calm     92 % 0.00 in /  0 mm
06:07 35.3 °F /  1.8 °C 33.2 °F /  0.7 °C 30.16 in /  1021.2 hPa Calm     92 % 0.00 in /  0 mm
06:11 35.0 °F /  1.7 °C 32.9 °F /  0.5 °C 30.16 in /  1021.2 hPa Calm     92 % 0.00 in /  0 mm
06:16 34.6 °F /  1.4 °C 32.5 °F /  0.3 °C 30.16 in /  1021.2 hPa Calm     92 % 0.00 in /  0 mm
06:17 34.6 °F /  1.4 °C 32.5 °F /  0.3 °C 30.16 in /  1021.2 hPa Calm     92 % 0.00 in /  0 mm
06:22 34.5 °F /  1.4 °C 32.4 °F /  0.2 °C 30.17 in /  1021.6 hPa Calm     92 % 0.00 in /  0 mm
06:23 34.4 °F /  1.3 °C 32.3 °F /  0.2 °C 30.17 in /  1021.6 hPa Calm     92 % 0.00 in /  0 mm
06:28 34.3 °F /  1.3 °C 32.2 °F /  0.1 °C 30.17 in /  1021.6 hPa Calm     92 % 0.00 in /  0 mm
06:29 34.3 °F /  1.3 °C 32.2 °F /  0.1 °C 30.17 in /  1021.6 hPa Calm     92 % 0.00 in /  0 mm
06:34 34.0 °F /  1.1 °C 31.9 °F /  -0.1 °C 30.17 in /  1021.6 hPa Calm     92 % 0.00 in /  0 mm
06:36 33.9 °F /  1.1 °C 31.8 °F /  -0.1 °C 30.17 in /  1021.6 hPa Calm     92 % 0.00 in /  0 mm
06:41 33.7 °F /  0.9 °C 31.6 °F /  -0.2 °C 30.17 in /  1021.6 hPa Calm     92 % 0.00 in /  0 mm
06:46 33.6 °F /  0.9 °C 31.8 °F /  -0.1 °C 30.17 in /  1021.6 hPa Calm     93 % 0.00 in /  0 mm
06:47 33.6 °F /  0.9 °C 31.8 °F /  -0.1 °C 30.17 in /  1021.6 hPa Calm     93 % 0.00 in /  0 mm
06:52 33.7 °F /  0.9 °C 31.9 °F /  -0.1 °C 30.17 in /  1021.6 hPa Calm     93 % 0.00 in /  0 mm
06:53 33.7 °F /  0.9 °C 31.9 °F /  -0.1 °C 30.17 in /  1021.6 hPa Calm     93 % 0.00 in /  0 mm
06:58 33.6 °F /  0.9 °C 31.8 °F /  -0.1 °C 30.17 in /  1021.6 hPa Calm     93 % 0.00 in /  0 mm
07:00 33.5 °F /  0.8 °C 31.7 °F /  -0.2 °C 30.17 in /  1021.6 hPa Calm     93 % 0.00 in /  0 mm
07:05 33.6 °F /  0.9 °C 31.8 °F /  -0.1 °C 30.17 in /  1021.6 hPa Calm     93 % 0.00 in /  0 mm
07:06 33.6 °F /  0.9 °C 31.8 °F /  -0.1 °C 30.17 in /  1021.6 hPa Calm     93 % 0.00 in /  0 mm
07:11 33.8 °F /  1 °C 32.3 °F /  0.2 °C 30.17 in /  1021.6 hPa Calm     94 % 0.00 in /  0 mm
07:16 33.8 °F /  1 °C 32.0 °F /  0 °C 30.17 in /  1021.6 hPa Calm     93 % 0.00 in /  0 mm
07:19 33.7 °F /  0.9 °C 31.9 °F /  -0.1 °C 30.17 in /  1021.6 hPa Calm     93 % 0.00 in /  0 mm
07:22 33.7 °F /  0.9 °C 31.9 °F /  -0.1 °C 30.17 in /  1021.6 hPa Calm     93 % 0.00 in /  0 mm
07:27 33.6 °F /  0.9 °C 31.8 °F /  -0.1 °C 30.17 in /  1021.6 hPa Calm     93 % 0.00 in /  0 mm
07:28 33.6 °F /  0.9 °C 31.8 °F /  -0.1 °C 30.17 in /  1021.6 hPa Calm     93 % 0.00 in /  0 mm
07:33 33.6 °F /  0.9 °C 31.8 °F /  -0.1 °C 30.17 in /  1021.6 hPa Calm     93 % 0.00 in /  0 mm
07:36 33.7 °F /  0.9 °C 31.9 °F /  -0.1 °C 30.17 in /  1021.6 hPa Calm     93 % 0.00 in /  0 mm
07:37 33.7 °F /  0.9 °C 31.9 °F /  -0.1 °C 30.17 in /  1021.6 hPa Calm     93 % 0.00 in /  0 mm
07:43 33.9 °F /  1.1 °C 32.4 °F /  0.2 °C 30.17 in /  1021.6 hPa Calm     94 % 0.00 in /  0 mm
07:44 33.9 °F /  1.1 °C 32.4 °F /  0.2 °C 30.17 in /  1021.6 hPa Calm     94 % 0.00 in /  0 mm
07:49 34.1 °F /  1.2 °C 32.6 °F /  0.3 °C 30.17 in /  1021.6 hPa Calm     94 % 0.00 in /  0 mm
07:50 34.1 °F /  1.2 °C 32.6 °F /  0.3 °C 30.17 in /  1021.6 hPa Calm     94 % 0.00 in /  0 mm
07:55 34.3 °F /  1.3 °C 32.8 °F /  0.4 °C 30.17 in /  1021.6 hPa Calm     94 % 0.00 in /  0 mm
07:56 34.4 °F /  1.3 °C 32.9 °F /  0.5 °C 30.17 in /  1021.6 hPa Calm     94 % 0.00 in /  0 mm
08:01 34.7 °F /  1.5 °C 33.2 °F /  0.7 °C 30.17 in /  1021.6 hPa Calm     94 % 0.00 in /  0 mm
08:06 35.6 °F /  2 °C 34.0 °F /  1.1 °C 30.17 in /  1021.6 hPa Calm     94 % 0.00 in /  0 mm
08:08 36.1 °F /  2.3 °C 34.8 °F /  1.6 °C 30.17 in /  1021.6 hPa Calm     95 % 0.00 in /  0 mm
08:13 37.6 °F /  3.1 °C 36.3 °F /  2.4 °C 30.17 in /  1021.6 hPa Calm     95 % 0.00 in /  0 mm
08:14 37.9 °F /  3.3 °C 36.6 °F /  2.6 °C 30.17 in /  1021.6 hPa Calm     95 % 0.00 in /  0 mm
08:18 38.8 °F /  3.8 °C 37.2 °F /  2.9 °C 30.17 in /  1021.6 hPa Calm     94 % 0.00 in /  0 mm
08:23 40.0 °F /  4.4 °C 37.9 °F /  3.3 °C 30.17 in /  1021.6 hPa Calm     92 % 0.00 in /  0 mm
08:26 40.8 °F /  4.9 °C 38.1 °F /  3.4 °C 30.17 in /  1021.6 hPa Calm     90 % 0.00 in /  0 mm
08:30 41.9 °F /  5.5 °C 38.3 °F /  3.5 °C 30.17 in /  1021.6 hPa Calm     87 % 0.00 in /  0 mm
08:31 42.0 °F /  5.6 °C 38.4 °F /  3.6 °C 30.17 in /  1021.6 hPa Calm     87 % 0.00 in /  0 mm
08:36 41.9 °F /  5.5 °C 38.0 °F /  3.3 °C 30.17 in /  1021.6 hPa Calm     86 % 0.00 in /  0 mm
08:37 41.8 °F /  5.4 °C 37.9 °F /  3.3 °C 30.17 in /  1021.6 hPa Calm     86 % 0.00 in /  0 mm
08:42 42.0 °F /  5.6 °C 38.1 °F /  3.4 °C 30.18 in /  1021.9 hPa Calm     86 % 0.00 in /  0 mm
08:43 42.1 °F /  5.6 °C 38.2 °F /  3.4 °C 30.18 in /  1021.9 hPa Calm     86 % 0.00 in /  0 mm
08:45 42.3 °F /  5.7 °C 38.4 °F /  3.6 °C 30.18 in /  1021.9 hPa Calm     86 % 0.00 in /  0 mm
08:49 42.9 °F /  6.1 °C 39.3 °F /  4.1 °C 30.18 in /  1021.9 hPa SSW 1.0 mph /  1.6 km/h 1.0 mph /  1.6 km/h 87 % 0.00 in /  0 mm
08:54 44.3 °F /  6.8 °C 40.1 °F /  4.5 °C 30.19 in /  1022.2 hPa Calm     85 % 0.00 in /  0 mm
08:55 44.5 °F /  6.9 °C 40.3 °F /  4.6 °C 30.19 in /  1022.2 hPa Calm     85 % 0.00 in /  0 mm
08:58 45.2 °F /  7.3 °C 40.7 °F /  4.8 °C 30.19 in /  1022.2 hPa Calm   0.1 mph /  0.2 km/h 84 % 0.00 in /  0 mm
09:03 45.8 °F /  7.7 °C 40.6 °F /  4.8 °C 30.19 in /  1022.2 hPa Calm     82 % 0.00 in /  0 mm
09:07 46.4 °F /  8 °C 40.9 °F /  4.9 °C 30.19 in /  1022.2 hPa SSE 1.2 mph /  1.9 km/h 1.2 mph /  1.9 km/h 81 % 0.00 in /  0 mm
09:09 46.5 °F /  8.1 °C 40.3 °F /  4.6 °C 30.19 in /  1022.2 hPa SSE 1.2 mph /  1.9 km/h   79 % 0.00 in /  0 mm
09:14 46.7 °F /  8.2 °C 40.2 °F /  4.6 °C 30.19 in /  1022.2 hPa Calm     78 % 0.00 in /  0 mm
09:15 46.5 °F /  8.1 °C 40.0 °F /  4.4 °C 30.19 in /  1022.2 hPa Calm     78 % 0.00 in /  0 mm
09:21 46.1 °F /  7.8 °C 40.3 °F /  4.6 °C 30.19 in /  1022.2 hPa Calm     80 % 0.00 in /  0 mm
09:23 46.0 °F /  7.8 °C 39.9 °F /  4.4 °C 30.19 in /  1022.2 hPa Calm     79 % 0.00 in /  0 mm
09:28 46.4 °F /  8 °C 40.6 °F /  4.8 °C 30.19 in /  1022.2 hPa Calm     80 % 0.00 in /  0 mm
09:30 46.7 °F /  8.2 °C 40.5 °F /  4.7 °C 30.19 in /  1022.2 hPa Calm     79 % 0.00 in /  0 mm
09:35 47.3 °F /  8.5 °C 40.8 °F /  4.9 °C 30.19 in /  1022.2 hPa ENE 1.2 mph /  1.9 km/h 1.2 mph /  1.9 km/h 78 % 0.00 in /  0 mm
09:37 47.4 °F /  8.6 °C 40.9 °F /  4.9 °C 30.19 in /  1022.2 hPa Calm     78 % 0.00 in /  0 mm
09:38 47.5 °F /  8.6 °C 41.0 °F /  5 °C 30.19 in /  1022.2 hPa Calm     78 % 0.00 in /  0 mm
09:43 48.0 °F /  8.9 °C 41.1 °F /  5.1 °C 30.19 in /  1022.2 hPa SE 1.2 mph /  1.9 km/h   77 % 0.00 in /  0 mm
09:46 48.2 °F /  9 °C 41.0 °F /  5 °C 30.19 in /  1022.2 hPa SE 1.0 mph /  1.6 km/h   76 % 0.00 in /  0 mm
09:47 48.4 °F /  9.1 °C 41.2 °F /  5.1 °C 30.19 in /  1022.2 hPa SE 1.2 mph /  1.9 km/h   76 % 0.00 in /  0 mm
09:52 49.2 °F /  9.6 °C 41.6 °F /  5.3 °C 30.20 in /  1022.6 hPa Calm     75 % 0.00 in /  0 mm
09:53 49.4 °F /  9.7 °C 41.8 °F /  5.4 °C 30.20 in /  1022.6 hPa Calm     75 % 0.00 in /  0 mm
09:54 49.4 °F /  9.7 °C 41.5 °F /  5.3 °C 30.20 in /  1022.6 hPa Calm     74 % 0.00 in /  0 mm
09:59 49.6 °F /  9.8 °C 41.7 °F /  5.4 °C 30.19 in /  1022.2 hPa Calm     74 % 0.00 in /  0 mm
10:03 50.1 °F /  10.1 °C 42.1 °F /  5.6 °C 30.19 in /  1022.2 hPa Calm     74 % 0.00 in /  0 mm
10:08 50.3 °F /  10.2 °C 41.6 °F /  5.3 °C 30.18 in /  1021.9 hPa WNW 1.2 mph /  1.9 km/h   72 % 0.00 in /  0 mm
10:09 50.4 °F /  10.2 °C 41.3 °F /  5.2 °C 30.18 in /  1021.9 hPa Calm     71 % 0.00 in /  0 mm
10:14 50.8 °F /  10.4 °C 42.5 °F /  5.8 °C 30.18 in /  1021.9 hPa Calm     73 % 0.00 in /  0 mm
10:15 50.9 °F /  10.5 °C 42.2 °F /  5.7 °C 30.18 in /  1021.9 hPa Calm     72 % 0.00 in /  0 mm
10:16 51.0 °F /  10.6 °C 42.3 °F /  5.7 °C 30.18 in /  1021.9 hPa Calm     72 % 0.00 in /  0 mm
10:21 52.1 °F /  11.2 °C 42.6 °F /  5.9 °C 30.18 in /  1021.9 hPa East 1.2 mph /  1.9 km/h 1.2 mph /  1.9 km/h 70 % 0.00 in /  0 mm
10:26 52.6 °F /  11.4 °C 42.3 °F /  5.7 °C 30.18 in /  1021.9 hPa Calm     68 % 0.00 in /  0 mm
10:32 53.0 °F /  11.7 °C 41.9 °F /  5.5 °C 30.18 in /  1021.9 hPa WNW 1.2 mph /  1.9 km/h 1.2 mph /  1.9 km/h 66 % 0.00 in /  0 mm
10:34 53.1 °F /  11.7 °C 42.4 °F /  5.8 °C 30.18 in /  1021.9 hPa Calm     67 % 0.00 in /  0 mm
10:39 53.6 °F /  12 °C 42.5 °F /  5.8 °C 30.17 in /  1021.6 hPa Calm     66 % 0.00 in /  0 mm
10:45 54.1 °F /  12.3 °C 43.0 °F /  6.1 °C 30.17 in /  1021.6 hPa Calm     66 % 0.00 in /  0 mm
10:46 54.3 °F /  12.4 °C 42.8 °F /  6 °C 30.17 in /  1021.6 hPa Calm     65 % 0.00 in /  0 mm
10:48 54.6 °F /  12.6 °C 43.5 °F /  6.4 °C 30.16 in /  1021.2 hPa Calm     66 % 0.00 in /  0 mm
10:51 54.8 °F /  12.7 °C 42.9 °F /  6.1 °C 30.16 in /  1021.2 hPa Calm     64 % 0.00 in /  0 mm
10:52 54.9 °F /  12.7 °C 42.9 °F /  6.1 °C 30.16 in /  1021.2 hPa Calm     64 % 0.00 in /  0 mm
10:56 55.0 °F /  12.8 °C 42.6 °F /  5.9 °C 30.16 in /  1021.2 hPa Calm     63 % 0.00 in /  0 mm
11:00 55.1 °F /  12.8 °C 42.3 °F /  5.7 °C 30.16 in /  1021.2 hPa Calm     62 % 0.00 in /  0 mm
11:03 54.9 °F /  12.7 °C 42.1 °F /  5.6 °C 30.16 in /  1021.2 hPa West 1.2 mph /  1.9 km/h   62 % 0.00 in /  0 mm
11:08 54.9 °F /  12.7 °C 42.5 °F /  5.8 °C 30.15 in /  1020.9 hPa Calm     63 % 0.00 in /  0 mm
11:09 54.9 °F /  12.7 °C 42.9 °F /  6.1 °C 30.15 in /  1020.9 hPa Calm     64 % 0.00 in /  0 mm
11:14 55.0 °F /  12.8 °C 42.6 °F /  5.9 °C 30.15 in /  1020.9 hPa NW 1.2 mph /  1.9 km/h 1.2 mph /  1.9 km/h 63 % 0.00 in /  0 mm
11:15 55.0 °F /  12.8 °C 42.6 °F /  5.9 °C 30.15 in /  1020.9 hPa Calm     63 % 0.00 in /  0 mm
11:20 55.1 °F /  12.8 °C 42.7 °F /  5.9 °C 30.15 in /  1020.9 hPa Calm     63 % 0.00 in /  0 mm
11:21 55.1 °F /  12.8 °C 43.1 °F /  6.2 °C 30.15 in /  1020.9 hPa Calm     64 % 0.00 in /  0 mm
11:26 55.5 °F /  13.1 °C 42.7 °F /  5.9 °C 30.15 in /  1020.9 hPa NW 1.2 mph /  1.9 km/h 1.2 mph /  1.9 km/h 62 % 0.00 in /  0 mm
11:31 55.8 °F /  13.2 °C 43.0 °F /  6.1 °C 30.14 in /  1020.5 hPa WNW 1.2 mph /  1.9 km/h 1.2 mph /  1.9 km/h 62 % 0.00 in /  0 mm
11:35 56.1 °F /  13.4 °C 43.3 °F /  6.3 °C 30.14 in /  1020.5 hPa Calm     62 % 0.00 in /  0 mm
11:39 56.5 °F /  13.6 °C 43.6 °F /  6.4 °C 30.14 in /  1020.5 hPa WNW 1.0 mph /  1.6 km/h   62 % 0.00 in /  0 mm
11:44 57.0 °F /  13.9 °C 43.2 °F /  6.2 °C 30.14 in /  1020.5 hPa WNW 1.2 mph /  1.9 km/h 1.2 mph /  1.9 km/h 60 % 0.00 in /  0 mm
11:46 57.2 °F /  14 °C 43.9 °F /  6.6 °C 30.13 in /  1020.2 hPa WNW 1.0 mph /  1.6 km/h 1.0 mph /  1.6 km/h 61 % 0.00 in /  0 mm
11:51 57.8 °F /  14.3 °C 44.0 °F /  6.7 °C 30.13 in /  1020.2 hPa NW 1.0 mph /  1.6 km/h 1.0 mph /  1.6 km/h 60 % 0.00 in /  0 mm
11:56 57.9 °F /  14.4 °C 44.1 °F /  6.7 °C 30.13 in /  1020.2 hPa Calm   0.1 mph /  0.2 km/h 60 % 0.00 in /  0 mm
11:57 57.9 °F /  14.4 °C 43.7 °F /  6.5 °C 30.13 in /  1020.2 hPa WNW 1.2 mph /  1.9 km/h 1.2 mph /  1.9 km/h 59 % 0.00 in /  0 mm
11:59 57.9 °F /  14.4 °C 43.7 °F /  6.5 °C 30.13 in /  1020.2 hPa Calm     59 % 0.00 in /  0 mm
12:03 58.0 °F /  14.4 °C 44.2 °F /  6.8 °C 30.13 in /  1020.2 hPa Calm     60 % 0.00 in /  0 mm
12:08 58.3 °F /  14.6 °C 43.6 °F /  6.4 °C 30.12 in /  1019.9 hPa NW 2.3 mph /  3.7 km/h 2.3 mph /  3.7 km/h 58 % 0.00 in /  0 mm
12:11 58.4 °F /  14.7 °C 43.2 °F /  6.2 °C 30.12 in /  1019.9 hPa NW 1.2 mph /  1.9 km/h 1.2 mph /  1.9 km/h 57 % 0.00 in /  0 mm
12:15 58.6 °F /  14.8 °C 43.4 °F /  6.3 °C 30.12 in /  1019.9 hPa Calm     57 % 0.00 in /  0 mm
12:20 59.0 °F /  15 °C 43.3 °F /  6.3 °C 30.12 in /  1019.9 hPa WNW 1.2 mph /  1.9 km/h 1.2 mph /  1.9 km/h 56 % 0.00 in /  0 mm
12:22 59.2 °F /  15.1 °C 43.5 °F /  6.4 °C 30.12 in /  1019.9 hPa WNW 2.3 mph /  3.7 km/h 2.3 mph /  3.7 km/h 56 % 0.00 in /  0 mm
12:27 59.7 °F /  15.4 °C 44.0 °F /  6.7 °C 30.12 in /  1019.9 hPa NW 2.3 mph /  3.7 km/h 2.3 mph /  3.7 km/h 56 % 0.00 in /  0 mm
12:29 59.8 °F /  15.4 °C 43.6 °F /  6.4 °C 30.12 in /  1019.9 hPa NW 2.3 mph /  3.7 km/h 2.3 mph /  3.7 km/h 55 % 0.00 in /  0 mm
12:34 59.8 °F /  15.4 °C 43.6 °F /  6.4 °C 30.12 in /  1019.9 hPa NW 1.2 mph /  1.9 km/h 1.2 mph /  1.9 km/h 55 % 0.00 in /  0 mm
12:38 59.9 °F /  15.5 °C 44.2 °F /  6.8 °C 30.12 in /  1019.9 hPa NW 2.3 mph /  3.7 km/h 2.3 mph /  3.7 km/h 56 % 0.00 in /  0 mm
12:40 60.0 °F /  15.6 °C 43.8 °F /  6.6 °C 30.11 in /  1019.5 hPa North 3.5 mph /  5.6 km/h 3.5 mph /  5.6 km/h 55 % 0.00 in /  0 mm
12:44 60.1 °F /  15.6 °C 43.9 °F /  6.6 °C 30.11 in /  1019.5 hPa NW 1.2 mph /  1.9 km/h 1.2 mph /  1.9 km/h 55 % 0.00 in /  0 mm
12:46 60.1 °F /  15.6 °C 44.3 °F /  6.8 °C 30.11 in /  1019.5 hPa Calm     56 % 0.00 in /  0 mm
12:50 60.3 °F /  15.7 °C 44.1 °F /  6.7 °C 30.11 in /  1019.5 hPa WNW 2.3 mph /  3.7 km/h 2.3 mph /  3.7 km/h 55 % 0.00 in /  0 mm
12:51 60.3 °F /  15.7 °C 44.1 °F /  6.7 °C 30.11 in /  1019.5 hPa WNW 2.3 mph /  3.7 km/h 2.3 mph /  3.7 km/h 55 % 0.00 in /  0 mm
12:56 60.4 °F /  15.8 °C 43.7 °F /  6.5 °C 30.11 in /  1019.5 hPa NW 2.0 mph /  3.2 km/h 2.0 mph /  3.2 km/h 54 % 0.00 in /  0 mm
12:58 60.5 °F /  15.8 °C 43.8 °F /  6.6 °C 30.10 in /  1019.2 hPa WSW 2.3 mph /  3.7 km/h 2.3 mph /  3.7 km/h 54 % 0.00 in /  0 mm
13:03 60.6 °F /  15.9 °C 44.3 °F /  6.8 °C 30.10 in /  1019.2 hPa Calm     55 % 0.00 in /  0 mm
13:06 60.8 °F /  16 °C 44.5 °F /  6.9 °C 30.10 in /  1019.2 hPa NW 2.3 mph /  3.7 km/h 2.3 mph /  3.7 km/h 55 % 0.00 in /  0 mm
13:15 60.9 °F /  16.1 °C 43.6 °F /  6.4 °C 30.10 in /  1019.2 hPa NNE 2.3 mph /  3.7 km/h 2.3 mph /  3.7 km/h 53 % 0.00 in /  0 mm
13:16 60.9 °F /  16.1 °C 43.6 °F /  6.4 °C 30.10 in /  1019.2 hPa NNE 2.3 mph /  3.7 km/h 2.3 mph /  3.7 km/h 53 % 0.00 in /  0 mm
13:17 60.9 °F /  16.1 °C 43.6 °F /  6.4 °C 30.10 in /  1019.2 hPa NNE 2.3 mph /  3.7 km/h 2.3 mph /  3.7 km/h 53 % 0.00 in /  0 mm
13:22 60.9 °F /  16.1 °C 43.6 °F /  6.4 °C 30.09 in /  1018.8 hPa Calm     53 % 0.00 in /  0 mm
13:24 60.9 °F /  16.1 °C 43.6 °F /  6.4 °C 30.09 in /  1018.8 hPa Calm     53 % 0.00 in /  0 mm
13:27 61.4 °F /  16.3 °C 44.1 °F /  6.7 °C 30.09 in /  1018.8 hPa Calm     53 % 0.00 in /  0 mm
13:30 61.6 °F /  16.4 °C 44.3 °F /  6.8 °C 30.09 in /  1018.8 hPa WNW 1.2 mph /  1.9 km/h 1.2 mph /  1.9 km/h 53 % 0.00 in /  0 mm
13:35 61.7 °F /  16.5 °C 43.9 °F /  6.6 °C 30.09 in /  1018.8 hPa NW 1.2 mph /  1.9 km/h 1.2 mph /  1.9 km/h 52 % 0.00 in /  0 mm
13:40 62.0 °F /  16.7 °C 44.2 °F /  6.8 °C 30.09 in /  1018.8 hPa North 2.0 mph /  3.2 km/h 2.0 mph /  3.2 km/h 52 % 0.00 in /  0 mm
13:41 62.0 °F /  16.7 °C 44.2 °F /  6.8 °C 30.09 in /  1018.8 hPa NW 2.3 mph /  3.7 km/h 2.3 mph /  3.7 km/h 52 % 0.00 in /  0 mm
13:44 62.1 °F /  16.7 °C 44.8 °F /  7.1 °C 30.08 in /  1018.5 hPa Calm     53 % 0.00 in /  0 mm
13:47 62.2 °F /  16.8 °C 44.3 °F /  6.8 °C 30.08 in /  1018.5 hPa NW 1.2 mph /  1.9 km/h 1.2 mph /  1.9 km/h 52 % 0.00 in /  0 mm
13:50 62.5 °F /  16.9 °C 44.1 °F /  6.7 °C 30.08 in /  1018.5 hPa WNW 2.3 mph /  3.7 km/h 2.3 mph /  3.7 km/h 51 % 0.00 in /  0 mm
13:55 62.8 °F /  17.1 °C 44.4 °F /  6.9 °C 30.08 in /  1018.5 hPa NW 1.0 mph /  1.6 km/h 1.3 mph /  2.1 km/h 51 % 0.00 in /  0 mm
13:56 62.8 °F /  17.1 °C 44.4 °F /  6.9 °C 30.08 in /  1018.5 hPa NW 3.5 mph /  5.6 km/h 3.5 mph /  5.6 km/h 51 % 0.00 in /  0 mm
14:01 62.9 °F /  17.2 °C 43.4 °F /  6.3 °C 30.07 in /  1018.2 hPa NW 3.5 mph /  5.6 km/h 3.5 mph /  5.6 km/h 49 % 0.00 in /  0 mm
14:04 63.0 °F /  17.2 °C 44.1 °F /  6.7 °C 30.08 in /  1018.5 hPa NW 2.3 mph /  3.7 km/h 2.3 mph /  3.7 km/h 50 % 0.00 in /  0 mm
14:07 63.2 °F /  17.3 °C 44.2 °F /  6.8 °C 30.08 in /  1018.5 hPa Calm     50 % 0.00 in /  0 mm
14:12 63.6 °F /  17.6 °C 44.1 °F /  6.7 °C 30.07 in /  1018.2 hPa NW 2.0 mph /  3.2 km/h 2.0 mph /  3.2 km/h 49 % 0.00 in /  0 mm
14:13 63.6 °F /  17.6 °C 43.5 °F /  6.4 °C 30.07 in /  1018.2 hPa NW 3.5 mph /  5.6 km/h 3.5 mph /  5.6 km/h 48 % 0.00 in /  0 mm
14:18 63.4 °F /  17.4 °C 43.9 °F /  6.6 °C 30.07 in /  1018.2 hPa Calm     49 % 0.00 in /  0 mm
14:22 63.3 °F /  17.4 °C 43.8 °F /  6.6 °C 30.06 in /  1017.8 hPa NW 1.2 mph /  1.9 km/h 1.2 mph /  1.9 km/h 49 % 0.00 in /  0 mm
14:27 63.3 °F /  17.4 °C 43.8 °F /  6.6 °C 30.06 in /  1017.8 hPa NW 2.3 mph /  3.7 km/h 2.3 mph /  3.7 km/h 49 % 0.00 in /  0 mm
14:28 63.3 °F /  17.4 °C 43.8 °F /  6.6 °C 30.06 in /  1017.8 hPa NW 1.2 mph /  1.9 km/h 1.2 mph /  1.9 km/h 49 % 0.00 in /  0 mm
14:33 63.1 °F /  17.3 °C 43.6 °F /  6.4 °C 30.06 in /  1017.8 hPa NW 1.2 mph /  1.9 km/h 1.2 mph /  1.9 km/h 49 % 0.00 in /  0 mm
14:37 63.2 °F /  17.3 °C 43.7 °F /  6.5 °C 30.06 in /  1017.8 hPa WNW 2.3 mph /  3.7 km/h 2.3 mph /  3.7 km/h 49 % 0.00 in /  0 mm
14:40 63.1 °F /  17.3 °C 44.2 °F /  6.8 °C 30.06 in /  1017.8 hPa NW 2.3 mph /  3.7 km/h 2.3 mph /  3.7 km/h 50 % 0.00 in /  0 mm
14:43 63.1 °F /  17.3 °C 44.2 °F /  6.8 °C 30.06 in /  1017.8 hPa WNW 1.2 mph /  1.9 km/h 1.2 mph /  1.9 km/h 50 % 0.00 in /  0 mm
14:47 63.1 °F /  17.3 °C 44.2 °F /  6.8 °C 30.06 in /  1017.8 hPa NNW 1.2 mph /  1.9 km/h 1.2 mph /  1.9 km/h 50 % 0.00 in /  0 mm
14:48 63.1 °F /  17.3 °C 44.2 °F /  6.8 °C 30.06 in /  1017.8 hPa NW 1.2 mph /  1.9 km/h 1.2 mph /  1.9 km/h 50 % 0.00 in /  0 mm
14:54 62.9 °F /  17.2 °C 44.0 °F /  6.7 °C 30.06 in /  1017.8 hPa Calm     50 % 0.00 in /  0 mm
14:55 62.9 °F /  17.2 °C 44.0 °F /  6.7 °C 30.06 in /  1017.8 hPa WNW 1.2 mph /  1.9 km/h 1.2 mph /  1.9 km/h 50 % 0.00 in /  0 mm
14:59 62.7 °F /  17.1 °C 44.3 °F /  6.8 °C 30.06 in /  1017.8 hPa WNW 1.2 mph /  1.9 km/h 1.2 mph /  1.9 km/h 51 % 0.00 in /  0 mm
15:01 62.6 °F /  17 °C 43.7 °F /  6.5 °C 30.06 in /  1017.8 hPa WNW 1.2 mph /  1.9 km/h   50 % 0.00 in /  0 mm
15:04 62.5 °F /  16.9 °C 44.1 °F /  6.7 °C 30.06 in /  1017.8 hPa NW 1.2 mph /  1.9 km/h 1.2 mph /  1.9 km/h 51 % 0.00 in /  0 mm
15:07 62.4 °F /  16.9 °C 43.5 °F /  6.4 °C 30.06 in /  1017.8 hPa NW 1.2 mph /  1.9 km/h 1.2 mph /  1.9 km/h 50 % 0.00 in /  0 mm
15:09 62.4 °F /  16.9 °C 43.5 °F /  6.4 °C 30.06 in /  1017.8 hPa NW 1.2 mph /  1.9 km/h 1.2 mph /  1.9 km/h 50 % 0.00 in /  0 mm
15:14 62.4 °F /  16.9 °C 44.5 °F /  6.9 °C 30.06 in /  1017.8 hPa NW 1.2 mph /  1.9 km/h   52 % 0.00 in /  0 mm
15:15 62.4 °F /  16.9 °C 44.5 °F /  6.9 °C 30.06 in /  1017.8 hPa Calm     52 % 0.00 in /  0 mm
15:20 62.3 °F /  16.8 °C 45.4 °F /  7.4 °C 30.06 in /  1017.8 hPa Calm     54 % 0.00 in /  0 mm
15:25 62.1 °F /  16.7 °C 44.3 °F /  6.8 °C 30.06 in /  1017.8 hPa WNW 1.2 mph /  1.9 km/h 1.2 mph /  1.9 km/h 52 % 0.00 in /  0 mm
15:26 62.1 °F /  16.7 °C 44.3 °F /  6.8 °C 30.06 in /  1017.8 hPa NW 1.2 mph /  1.9 km/h 1.2 mph /  1.9 km/h 52 % 0.00 in /  0 mm
15:31 61.9 °F /  16.6 °C 44.6 °F /  7 °C 30.06 in /  1017.8 hPa Calm     53 % 0.00 in /  0 mm
15:33 61.9 °F /  16.6 °C 44.6 °F /  7 °C 30.06 in /  1017.8 hPa Calm     53 % 0.00 in /  0 mm
15:35 61.7 °F /  16.5 °C 44.4 °F /  6.9 °C 30.06 in /  1017.8 hPa Calm     53 % 0.00 in /  0 mm
15:39 61.5 °F /  16.4 °C 44.7 °F /  7.1 °C 30.06 in /  1017.8 hPa Calm     54 % 0.00 in /  0 mm
15:42 61.3 °F /  16.3 °C 45.0 °F /  7.2 °C 30.06 in /  1017.8 hPa Calm     55 % 0.00 in /  0 mm
15:47 60.9 °F /  16.1 °C 45.1 °F /  7.3 °C 30.06 in /  1017.8 hPa Calm     56 % 0.00 in /  0 mm
15:48 60.8 °F /  16 °C 45.0 °F /  7.2 °C 30.06 in /  1017.8 hPa Calm     56 % 0.00 in /  0 mm
15:51 60.6 °F /  15.9 °C 44.8 °F /  7.1 °C 30.06 in /  1017.8 hPa NW 1.2 mph /  1.9 km/h   56 % 0.00 in /  0 mm
15:53 60.4 °F /  15.8 °C 45.1 °F /  7.3 °C 30.06 in /  1017.8 hPa Calm     57 % 0.00 in /  0 mm
15:58 60.0 °F /  15.6 °C 44.7 °F /  7.1 °C 30.06 in /  1017.8 hPa WNW 1.2 mph /  1.9 km/h 1.2 mph /  1.9 km/h 57 % 0.00 in /  0 mm
15:59 59.9 °F /  15.5 °C 44.6 °F /  7 °C 30.06 in /  1017.8 hPa Calm     57 % 0.00 in /  0 mm
16:04 59.6 °F /  15.3 °C 44.8 °F /  7.1 °C 30.06 in /  1017.8 hPa WNW 1.2 mph /  1.9 km/h   58 % 0.00 in /  0 mm
16:09 59.3 °F /  15.2 °C 44.5 °F /  6.9 °C 30.05 in /  1017.5 hPa Calm     58 % 0.00 in /  0 mm
16:13 59.2 °F /  15.1 °C 44.4 °F /  6.9 °C 30.05 in /  1017.5 hPa Calm     58 % 0.00 in /  0 mm
16:14 59.2 °F /  15.1 °C 44.4 °F /  6.9 °C 30.05 in /  1017.5 hPa Calm     58 % 0.00 in /  0 mm
16:19 59.0 °F /  15 °C 44.2 °F /  6.8 °C 30.05 in /  1017.5 hPa Calm     58 % 0.00 in /  0 mm
16:20 59.0 °F /  15 °C 44.2 °F /  6.8 °C 30.05 in /  1017.5 hPa Calm     58 % 0.00 in /  0 mm
16:25 58.5 °F /  14.7 °C 44.7 °F /  7.1 °C 30.05 in /  1017.5 hPa Calm     60 % 0.00 in /  0 mm
16:26 58.4 °F /  14.7 °C 44.6 °F /  7 °C 30.05 in /  1017.5 hPa Calm     60 % 0.00 in /  0 mm
16:30 57.8 °F /  14.3 °C 44.4 °F /  6.9 °C 30.05 in /  1017.5 hPa Calm     61 % 0.00 in /  0 mm
16:36 57.2 °F /  14 °C 44.3 °F /  6.8 °C 30.06 in /  1017.8 hPa Calm     62 % 0.00 in /  0 mm
16:40 56.7 °F /  13.7 °C 44.2 °F /  6.8 °C 30.06 in /  1017.8 hPa Calm     63 % 0.00 in /  0 mm
16:43 56.3 °F /  13.5 °C 44.3 °F /  6.8 °C 30.06 in /  1017.8 hPa Calm     64 % 0.00 in /  0 mm
16:47 55.8 °F /  13.2 °C 43.8 °F /  6.6 °C 30.06 in /  1017.8 hPa Calm     64 % 0.00 in /  0 mm
16:49 55.5 °F /  13.1 °C 43.9 °F /  6.6 °C 30.06 in /  1017.8 hPa Calm     65 % 0.00 in /  0 mm
16:52 55.2 °F /  12.9 °C 44.0 °F /  6.7 °C 30.06 in /  1017.8 hPa Calm     66 % 0.00 in /  0 mm
16:57 54.7 °F /  12.6 °C 44.0 °F /  6.7 °C 30.06 in /  1017.8 hPa Calm     67 % 0.00 in /  0 mm
16:58 54.6 °F /  12.6 °C 43.9 °F /  6.6 °C 30.06 in /  1017.8 hPa Calm     67 % 0.00 in /  0 mm
17:03 54.1 °F /  12.3 °C 43.8 °F /  6.6 °C 30.07 in /  1018.2 hPa Calm     68 % 0.00 in /  0 mm
17:05 54.0 °F /  12.2 °C 43.7 °F /  6.5 °C 30.07 in /  1018.2 hPa Calm     68 % 0.00 in /  0 mm
17:06 53.9 °F /  12.2 °C 43.6 °F /  6.4 °C 30.07 in /  1018.2 hPa Calm     68 % 0.00 in /  0 mm
17:10 53.6 °F /  12 °C 43.7 °F /  6.5 °C 30.07 in /  1018.2 hPa Calm     69 % 0.00 in /  0 mm
17:15 53.1 °F /  11.7 °C 43.6 °F /  6.4 °C 30.06 in /  1017.8 hPa Calm     70 % 0.00 in /  0 mm
17:17 52.9 °F /  11.6 °C 43.4 °F /  6.3 °C 30.06 in /  1017.8 hPa Calm     70 % 0.00 in /  0 mm
17:20 52.7 °F /  11.5 °C 43.6 °F /  6.4 °C 30.06 in /  1017.8 hPa Calm     71 % 0.00 in /  0 mm
17:23 52.4 °F /  11.3 °C 43.6 °F /  6.4 °C 30.07 in /  1018.2 hPa Calm     72 % 0.00 in /  0 mm
17:28 51.9 °F /  11.1 °C 43.5 °F /  6.4 °C 30.07 in /  1018.2 hPa Calm     73 % 0.00 in /  0 mm
17:29 51.7 °F /  10.9 °C 43.3 °F /  6.3 °C 30.07 in /  1018.2 hPa Calm     73 % 0.00 in /  0 mm
17:34 51.4 °F /  10.8 °C 43.4 °F /  6.3 °C 30.06 in /  1017.8 hPa Calm     74 % 0.00 in /  0 mm
17:36 51.4 °F /  10.8 °C 43.4 °F /  6.3 °C 30.07 in /  1018.2 hPa Calm     74 % 0.00 in /  0 mm
17:37 51.3 °F /  10.7 °C 43.6 °F /  6.4 °C 30.07 in /  1018.2 hPa Calm     75 % 0.00 in /  0 mm
17:42 51.0 °F /  10.6 °C 43.4 °F /  6.3 °C 30.07 in /  1018.2 hPa Calm     75 % 0.00 in /  0 mm
17:47 50.7 °F /  10.4 °C 43.4 °F /  6.3 °C 30.07 in /  1018.2 hPa Calm     76 % 0.00 in /  0 mm
17:48 50.7 °F /  10.4 °C 43.4 °F /  6.3 °C 30.07 in /  1018.2 hPa Calm     76 % 0.00 in /  0 mm
17:53 50.4 °F /  10.2 °C 43.1 °F /  6.2 °C 30.07 in /  1018.2 hPa Calm     76 % 0.00 in /  0 mm
17:55 50.3 °F /  10.2 °C 43.4 °F /  6.3 °C 30.07 in /  1018.2 hPa Calm     77 % 0.00 in /  0 mm
18:00 49.9 °F /  9.9 °C 43.0 °F /  6.1 °C 30.07 in /  1018.2 hPa Calm     77 % 0.00 in /  0 mm
18:02 49.8 °F /  9.9 °C 42.9 °F /  6.1 °C 30.07 in /  1018.2 hPa Calm     77 % 0.00 in /  0 mm
18:03 49.7 °F /  9.8 °C 42.8 °F /  6 °C 30.07 in /  1018.2 hPa Calm     77 % 0.00 in /  0 mm
18:08 49.4 °F /  9.7 °C 42.5 °F /  5.8 °C 30.07 in /  1018.2 hPa Calm     77 % 0.00 in /  0 mm
18:09 49.4 °F /  9.7 °C 42.8 °F /  6 °C 30.07 in /  1018.2 hPa Calm     78 % 0.00 in /  0 mm
18:14 49.3 °F /  9.6 °C 42.7 °F /  5.9 °C 30.07 in /  1018.2 hPa Calm     78 % 0.00 in /  0 mm
18:15 49.3 °F /  9.6 °C 42.7 °F /  5.9 °C 30.07 in /  1018.2 hPa Calm     78 % 0.00 in /  0 mm
18:18 49.2 °F /  9.6 °C 43.0 °F /  6.1 °C 30.07 in /  1018.2 hPa Calm     79 % 0.00 in /  0 mm
18:20 49.1 °F /  9.5 °C 42.5 °F /  5.8 °C 30.06 in /  1017.8 hPa Calm     78 % 0.00 in /  0 mm
18:25 48.8 °F /  9.3 °C 42.6 °F /  5.9 °C 30.06 in /  1017.8 hPa Calm     79 % 0.00 in /  0 mm
18:26 48.7 °F /  9.3 °C 42.5 °F /  5.8 °C 30.07 in /  1018.2 hPa Calm     79 % 0.00 in /  0 mm
18:31 48.4 °F /  9.1 °C 42.2 °F /  5.7 °C 30.07 in /  1018.2 hPa Calm     79 % 0.00 in /  0 mm
18:32 48.3 °F /  9.1 °C 42.1 °F /  5.6 °C 30.07 in /  1018.2 hPa Calm     79 % 0.00 in /  0 mm
18:37 47.8 °F /  8.8 °C 41.9 °F /  5.5 °C 30.07 in /  1018.2 hPa Calm     80 % 0.00 in /  0 mm
18:40 47.6 °F /  8.7 °C 41.7 °F /  5.4 °C 30.07 in /  1018.2 hPa Calm     80 % 0.00 in /  0 mm
18:45 47.0 °F /  8.3 °C 41.5 °F /  5.3 °C 30.07 in /  1018.2 hPa Calm     81 % 0.00 in /  0 mm
18:46 47.0 °F /  8.3 °C 41.5 °F /  5.3 °C 30.07 in /  1018.2 hPa Calm     81 % 0.00 in /  0 mm
18:47 46.9 °F /  8.3 °C 41.7 °F /  5.4 °C 30.07 in /  1018.2 hPa Calm     82 % 0.00 in /  0 mm
18:52 46.5 °F /  8.1 °C 41.3 °F /  5.2 °C 30.07 in /  1018.2 hPa Calm     82 % 0.00 in /  0 mm
18:53 46.5 °F /  8.1 °C 41.3 °F /  5.2 °C 30.07 in /  1018.2 hPa Calm     82 % 0.00 in /  0 mm
18:54 46.4 °F /  8 °C 41.2 °F /  5.1 °C 30.07 in /  1018.2 hPa Calm     82 % 0.00 in /  0 mm
18:59 46.1 °F /  7.8 °C 40.9 °F /  4.9 °C 30.07 in /  1018.2 hPa Calm     82 % 0.00 in /  0 mm
19:04 45.8 °F /  7.7 °C 40.9 °F /  4.9 °C 30.07 in /  1018.2 hPa Calm     83 % 0.00 in /  0 mm
19:06 45.6 °F /  7.6 °C 40.7 °F /  4.8 °C 30.07 in /  1018.2 hPa Calm     83 % 0.00 in /  0 mm
19:12 45.6 °F /  7.6 °C 41.0 °F /  5 °C 30.07 in /  1018.2 hPa Calm     84 % 0.00 in /  0 mm
19:21 45.7 °F /  7.6 °C 40.8 °F /  4.9 °C 30.07 in /  1018.2 hPa Calm     83 % 0.00 in /  0 mm
19:25 45.5 °F /  7.5 °C 40.9 °F /  4.9 °C 30.07 in /  1018.2 hPa Calm     84 % 0.00 in /  0 mm
19:30 45.2 °F /  7.3 °C 40.7 °F /  4.8 °C 30.07 in /  1018.2 hPa Calm     84 % 0.00 in /  0 mm
19:31 45.2 °F /  7.3 °C 40.7 °F /  4.8 °C 30.08 in /  1018.5 hPa Calm     84 % 0.00 in /  0 mm
19:36 44.9 °F /  7.2 °C 40.7 °F /  4.8 °C 30.08 in /  1018.5 hPa Calm     85 % 0.00 in /  0 mm
19:39 44.7 °F /  7.1 °C 40.5 °F /  4.7 °C 30.08 in /  1018.5 hPa Calm     85 % 0.00 in /  0 mm
19:43 44.5 °F /  6.9 °C 40.3 °F /  4.6 °C 30.08 in /  1018.5 hPa Calm     85 % 0.00 in /  0 mm
19:48 44.4 °F /  6.9 °C 40.5 °F /  4.7 °C 30.08 in /  1018.5 hPa Calm     86 % 0.00 in /  0 mm
19:53 44.3 °F /  6.8 °C 40.7 °F /  4.8 °C 30.07 in /  1018.2 hPa Calm     87 % 0.00 in /  0 mm
19:54 44.3 °F /  6.8 °C 40.7 °F /  4.8 °C 30.07 in /  1018.2 hPa Calm     87 % 0.00 in /  0 mm
19:55 44.3 °F /  6.8 °C 40.7 °F /  4.8 °C 30.07 in /  1018.2 hPa Calm     87 % 0.00 in /  0 mm
20:00 44.2 °F /  6.8 °C 40.6 °F /  4.8 °C 30.07 in /  1018.2 hPa Calm     87 % 0.00 in /  0 mm
20:01 44.2 °F /  6.8 °C 40.6 °F /  4.8 °C 30.08 in /  1018.5 hPa Calm     87 % 0.00 in /  0 mm
20:06 44.1 °F /  6.7 °C 40.5 °F /  4.7 °C 30.08 in /  1018.5 hPa Calm     87 % 0.00 in /  0 mm
20:09 44.1 °F /  6.7 °C 40.5 °F /  4.7 °C 30.08 in /  1018.5 hPa Calm     87 % 0.00 in /  0 mm
20:14 44.1 °F /  6.7 °C 40.5 °F /  4.7 °C 30.08 in /  1018.5 hPa Calm     87 % 0.00 in /  0 mm
20:15 44.1 °F /  6.7 °C 40.5 °F /  4.7 °C 30.08 in /  1018.5 hPa Calm     87 % 0.00 in /  0 mm
20:20 44.1 °F /  6.7 °C 40.5 °F /  4.7 °C 30.08 in /  1018.5 hPa Calm     87 % 0.00 in /  0 mm
20:23 44.1 °F /  6.7 °C 40.5 °F /  4.7 °C 30.09 in /  1018.8 hPa Calm     87 % 0.00 in /  0 mm
20:28 43.9 °F /  6.6 °C 40.3 °F /  4.6 °C 30.09 in /  1018.8 hPa Calm     87 % 0.00 in /  0 mm
20:29 43.9 °F /  6.6 °C 40.3 °F /  4.6 °C 30.09 in /  1018.8 hPa Calm     87 % 0.00 in /  0 mm
20:31 43.9 °F /  6.6 °C 40.3 °F /  4.6 °C 30.09 in /  1018.8 hPa Calm     87 % 0.00 in /  0 mm
20:36 43.8 °F /  6.6 °C 40.5 °F /  4.7 °C 30.09 in /  1018.8 hPa Calm     88 % 0.00 in /  0 mm
20:37 43.9 °F /  6.6 °C 40.6 °F /  4.8 °C 30.09 in /  1018.8 hPa Calm     88 % 0.00 in /  0 mm
20:42 43.8 °F /  6.6 °C 40.5 °F /  4.7 °C 30.09 in /  1018.8 hPa Calm     88 % 0.00 in /  0 mm
20:47 44.0 °F /  6.7 °C 40.7 °F /  4.8 °C 30.09 in /  1018.8 hPa Calm     88 % 0.00 in /  0 mm
20:50 44.2 °F /  6.8 °C 40.9 °F /  4.9 °C 30.09 in /  1018.8 hPa Calm     88 % 0.00 in /  0 mm
20:55 44.5 °F /  6.9 °C 40.9 °F /  4.9 °C 30.09 in /  1018.8 hPa Calm     87 % 0.00 in /  0 mm
20:57 44.5 °F /  6.9 °C 40.9 °F /  4.9 °C 30.09 in /  1018.8 hPa Calm     87 % 0.00 in /  0 mm
20:58 44.5 °F /  6.9 °C 40.9 °F /  4.9 °C 30.09 in /  1018.8 hPa Calm     87 % 0.00 in /  0 mm
21:03 44.5 °F /  6.9 °C 40.6 °F /  4.8 °C 30.09 in /  1018.8 hPa Calm     86 % 0.00 in /  0 mm
21:07 44.4 °F /  6.9 °C 40.5 °F /  4.7 °C 30.09 in /  1018.8 hPa Calm     86 % 0.00 in /  0 mm
21:12 44.1 °F /  6.7 °C 40.5 °F /  4.7 °C 30.09 in /  1018.8 hPa Calm     87 % 0.00 in /  0 mm
21:13 44.1 °F /  6.7 °C 40.5 °F /  4.7 °C 30.08 in /  1018.5 hPa Calm     87 % 0.00 in /  0 mm
21:14 44.1 °F /  6.7 °C 40.5 °F /  4.7 °C 30.08 in /  1018.5 hPa Calm     87 % 0.00 in /  0 mm
21:18 44.1 °F /  6.7 °C 40.5 °F /  4.7 °C 30.09 in /  1018.8 hPa Calm     87 % 0.00 in /  0 mm
21:21 44.1 °F /  6.7 °C 40.5 °F /  4.7 °C 30.09 in /  1018.8 hPa Calm     87 % 0.00 in /  0 mm
21:23 44.1 °F /  6.7 °C 40.5 °F /  4.7 °C 30.08 in /  1018.5 hPa Calm     87 % 0.00 in /  0 mm
21:28 44.1 °F /  6.7 °C 40.5 °F /  4.7 °C 30.08 in /  1018.5 hPa Calm     87 % 0.00 in /  0 mm
21:29 44.1 °F /  6.7 °C 40.5 °F /  4.7 °C 30.08 in /  1018.5 hPa Calm     87 % 0.00 in /  0 mm
21:34 44.1 °F /  6.7 °C 40.5 °F /  4.7 °C 30.09 in /  1018.8 hPa Calm     87 % 0.00 in /  0 mm
21:35 44.1 °F /  6.7 °C 40.5 °F /  4.7 °C 30.09 in /  1018.8 hPa Calm     87 % 0.00 in /  0 mm
21:40 44.3 °F /  6.8 °C 40.7 °F /  4.8 °C 30.09 in /  1018.8 hPa Calm     87 % 0.00 in /  0 mm
21:41 44.3 °F /  6.8 °C 40.7 °F /  4.8 °C 30.09 in /  1018.8 hPa Calm     87 % 0.00 in /  0 mm
21:46 44.4 °F /  6.9 °C 40.5 °F /  4.7 °C 30.09 in /  1018.8 hPa Calm     86 % 0.00 in /  0 mm
21:51 44.2 °F /  6.8 °C 40.3 °F /  4.6 °C 30.09 in /  1018.8 hPa Calm     86 % 0.00 in /  0 mm
21:52 44.2 °F /  6.8 °C 40.3 °F /  4.6 °C 30.09 in /  1018.8 hPa Calm     86 % 0.00 in /  0 mm
21:55 44.1 °F /  6.7 °C 40.2 °F /  4.6 °C 30.09 in /  1018.8 hPa Calm     86 % 0.00 in /  0 mm
21:57 44.0 °F /  6.7 °C 40.1 °F /  4.5 °C 30.09 in /  1018.8 hPa Calm     86 % 0.00 in /  0 mm
22:02 43.6 °F /  6.4 °C 39.4 °F /  4.1 °C 30.08 in /  1018.5 hPa Calm     85 % 0.00 in /  0 mm
22:05 43.1 °F /  6.2 °C 38.9 °F /  3.8 °C 30.08 in /  1018.5 hPa Calm     85 % 0.00 in /  0 mm
22:06 43.1 °F /  6.2 °C 39.2 °F /  4 °C 30.08 in /  1018.5 hPa Calm     86 % 0.00 in /  0 mm
22:11 42.7 °F /  5.9 °C 39.1 °F /  3.9 °C 30.08 in /  1018.5 hPa Calm     87 % 0.00 in /  0 mm
22:13 42.7 °F /  5.9 °C 39.1 °F /  3.9 °C 30.08 in /  1018.5 hPa Calm     87 % 0.00 in /  0 mm
22:16 42.6 °F /  5.9 °C 39.0 °F /  3.9 °C 30.08 in /  1018.5 hPa Calm     87 % 0.00 in /  0 mm
22:21 42.3 °F /  5.7 °C 38.7 °F /  3.7 °C 30.08 in /  1018.5 hPa Calm     87 % 0.00 in /  0 mm
22:22 42.3 °F /  5.7 °C 38.7 °F /  3.7 °C 30.08 in /  1018.5 hPa Calm     87 % 0.00 in /  0 mm
22:27 42.1 °F /  5.6 °C 38.8 °F /  3.8 °C 30.08 in /  1018.5 hPa Calm     88 % 0.00 in /  0 mm
22:28 42.1 °F /  5.6 °C 38.8 °F /  3.8 °C 30.08 in /  1018.5 hPa Calm     88 % 0.00 in /  0 mm
22:33 42.0 °F /  5.6 °C 39.0 °F /  3.9 °C 30.08 in /  1018.5 hPa Calm     89 % 0.00 in /  0 mm
22:38 42.1 °F /  5.6 °C 39.1 °F /  3.9 °C 30.08 in /  1018.5 hPa Calm     89 % 0.00 in /  0 mm
22:40 42.1 °F /  5.6 °C 39.1 °F /  3.9 °C 30.08 in /  1018.5 hPa Calm     89 % 0.00 in /  0 mm
22:42 42.2 °F /  5.7 °C 39.2 °F /  4 °C 30.08 in /  1018.5 hPa Calm     89 % 0.00 in /  0 mm
22:45 42.1 °F /  5.6 °C 39.1 °F /  3.9 °C 30.08 in /  1018.5 hPa Calm     89 % 0.00 in /  0 mm
22:49 42.2 °F /  5.7 °C 39.2 °F /  4 °C 30.08 in /  1018.5 hPa Calm     89 % 0.00 in /  0 mm
22:51 42.2 °F /  5.7 °C 39.2 °F /  4 °C 30.08 in /  1018.5 hPa Calm     89 % 0.00 in /  0 mm
22:56 42.3 °F /  5.7 °C 39.6 °F /  4.2 °C 30.08 in /  1018.5 hPa Calm     90 % 0.00 in /  0 mm
22:58 42.3 °F /  5.7 °C 39.6 °F /  4.2 °C 30.08 in /  1018.5 hPa Calm     90 % 0.00 in /  0 mm
23:03 42.5 °F /  5.8 °C 39.8 °F /  4.3 °C 30.08 in /  1018.5 hPa Calm     90 % 0.00 in /  0 mm
23:05 42.6 °F /  5.9 °C 39.9 °F /  4.4 °C 30.08 in /  1018.5 hPa Calm     90 % 0.00 in /  0 mm
23:10 42.9 °F /  6.1 °C 39.9 °F /  4.4 °C 30.08 in /  1018.5 hPa Calm     89 % 0.00 in /  0 mm
23:11 43.0 °F /  6.1 °C 40.0 °F /  4.4 °C 30.08 in /  1018.5 hPa Calm     89 % 0.00 in /  0 mm
23:13 43.0 °F /  6.1 °C 39.7 °F /  4.3 °C 30.08 in /  1018.5 hPa Calm     88 % 0.00 in /  0 mm
23:17 43.0 °F /  6.1 °C 39.7 °F /  4.3 °C 30.08 in /  1018.5 hPa Calm     88 % 0.00 in /  0 mm
23:22 42.7 °F /  5.9 °C 38.8 °F /  3.8 °C 30.08 in /  1018.5 hPa Calm     86 % 0.00 in /  0 mm
23:23 42.5 °F /  5.8 °C 38.6 °F /  3.7 °C 30.08 in /  1018.5 hPa Calm     86 % 0.00 in /  0 mm
23:27 42.0 °F /  5.6 °C 38.4 °F /  3.6 °C 30.08 in /  1018.5 hPa Calm     87 % 0.00 in /  0 mm
23:31 41.8 °F /  5.4 °C 38.5 °F /  3.6 °C 30.07 in /  1018.2 hPa Calm     88 % 0.00 in /  0 mm
23:33 41.9 °F /  5.5 °C 38.6 °F /  3.7 °C 30.07 in /  1018.2 hPa Calm     88 % 0.00 in /  0 mm
23:36 42.1 °F /  5.6 °C 38.8 °F /  3.8 °C 30.08 in /  1018.5 hPa Calm     88 % 0.00 in /  0 mm
23:39 42.2 °F /  5.7 °C 38.9 °F /  3.8 °C 30.08 in /  1018.5 hPa Calm     88 % 0.00 in /  0 mm
23:44 42.3 °F /  5.7 °C 39.0 °F /  3.9 °C 30.07 in /  1018.2 hPa Calm     88 % 0.00 in /  0 mm
23:45 42.3 °F /  5.7 °C 39.0 °F /  3.9 °C 30.07 in /  1018.2 hPa Calm     88 % 0.00 in /  0 mm
23:50 42.4 °F /  5.8 °C 39.1 °F /  3.9 °C 30.07 in /  1018.2 hPa Calm     88 % 0.00 in /  0 mm
23:51 42.4 °F /  5.8 °C 39.1 °F /  3.9 °C 30.07 in /  1018.2 hPa Calm     88 % 0.00 in /  0 mm
23:56 42.4 °F /  5.8 °C 38.8 °F /  3.8 °C 30.06 in /  1017.8 hPa Calm     87 % 0.00 in /  0 mm
23:59 42.4 °F /  5.8 °C 38.8 °F /  3.8 °C 30.06 in /  1017.8 hPa Calm     87 % 0.00 in /  0 mm
Park Place, Exeter, Tulare County, California, USA
Compliments of Weather Underground - 3.5 mb